Portada
METAR-TAF:

METAR-TAF

Aeroports :

Akeno, Japó

latitud: 34-32N, longitud: 136-41E, altitud: 6 m

Observació

L'informe es va fer fa 8 hores i 49 minuts, a les 05:06 UTC
Vent 10 kt del Nord/Nord-Oest amb ràfegues de 22 kt
Temperatura 16°C
Humitat 45%
Pressió 1013 hPa
Visibilitat 10 km o més
Escasses núvols a una alçada de 3000 ft

METAR: RJOE 190506Z 34010G22KT 9999 FEW030 16/04 Q1013 RMK 1CU030 A2993

Hora: 22:55 (13:55 UTC)


TAF: manca

Observacions i pronòstics meteorològics de més de 4000 aeroports (METAR i TAF).

Les estacions disponibles són els punts grocs i vermells al mapa.

Posi el ratolí al punt desitjat per veure el nom de l'estació.

Feu clic per veure les observacions i els pronòstics meteorològics.

Per canviar el mapa: feu clic els botons verds amb una creu de color negre per apropar; al botó verd amb un guió per allunyar la imatge; o en les fletxes verdes per a mapes adjacents.


METAR-TAF: